sensor_id;sensor_type;location;lat;lon;timestamp;P1;durP1;ratioP1;P2;durP2;ratioP2
62071;SDS011;48031;48.542;13.232;2022-11-13T00:03:15;2.20;;;1.80;;
62071;SDS011;48031;48.542;13.232;2022-11-13T00:07:35;1.60;;;1.50;;
62071;SDS011;48031;48.542;13.232;2022-11-13T00:11:55;1.65;;;1.55;;
62071;SDS011;48031;48.542;13.232;2022-11-13T00:16:17;3.10;;;1.70;;
62071;SDS011;48031;48.542;13.232;2022-11-13T00:20:38;1.50;;;1.40;;
62071;SDS011;48031;48.542;13.232;2022-11-13T00:24:58;2.03;;;1.80;;
62071;SDS011;48031;48.542;13.232;2022-11-13T00:29:19;2.10;;;1.90;;
62071;SDS011;48031;48.542;13.232;2022-11-13T00:33:39;2.08;;;1.88;;
62071;SDS011;48031;48.542;13.232;2022-11-13T00:38:19;2.33;;;1.88;;
62071;SDS011;48031;48.542;13.232;2022-11-13T00:42:39;2.40;;;2.00;;
62071;SDS011;48031;48.542;13.232;2022-11-13T00:46:59;3.67;;;2.10;;
62071;SDS011;48031;48.542;13.232;2022-11-13T00:51:19;2.80;;;2.10;;
62071;SDS011;48031;48.542;13.232;2022-11-13T00:55:41;2.00;;;1.77;;
62071;SDS011;48031;48.542;13.232;2022-11-13T01:00:02;2.20;;;1.98;;
62071;SDS011;48031;48.542;13.232;2022-11-13T01:04:24;2.10;;;1.90;;
62071;SDS011;48031;48.542;13.232;2022-11-13T01:08:44;3.47;;;2.42;;
62071;SDS011;48031;48.542;13.232;2022-11-13T01:13:04;1.70;;;1.60;;
62071;SDS011;48031;48.542;13.232;2022-11-13T01:17:24;3.53;;;2.50;;
62071;SDS011;48031;48.542;13.232;2022-11-13T01:21:45;2.15;;;1.80;;
62071;SDS011;48031;48.542;13.232;2022-11-13T01:26:11;2.65;;;2.03;;
62071;SDS011;48031;48.542;13.232;2022-11-13T01:30:33;1.80;;;1.63;;
62071;SDS011;48031;48.542;13.232;2022-11-13T01:34:54;1.88;;;1.50;;
62071;SDS011;48031;48.542;13.232;2022-11-13T01:39:14;1.60;;;1.50;;
62071;SDS011;48031;48.542;13.232;2022-11-13T01:43:35;2.17;;;1.90;;
62071;SDS011;48031;48.542;13.232;2022-11-13T01:47:56;3.47;;;2.50;;
62071;SDS011;48031;48.542;13.232;2022-11-13T01:52:24;5.22;;;3.25;;
62071;SDS011;48031;48.542;13.232;2022-11-13T01:56:47;7.05;;;4.05;;
62071;SDS011;48031;48.542;13.232;2022-11-13T02:01:09;6.75;;;4.35;;
62071;SDS011;48031;48.542;13.232;2022-11-13T02:05:29;6.80;;;3.65;;
62071;SDS011;48031;48.542;13.232;2022-11-13T02:09:50;5.72;;;3.00;;
62071;SDS011;48031;48.542;13.232;2022-11-13T02:14:14;4.18;;;2.78;;
62071;SDS011;48031;48.542;13.232;2022-11-13T02:18:35;4.43;;;2.88;;
62071;SDS011;48031;48.542;13.232;2022-11-13T02:27:45;5.35;;;2.92;;
62071;SDS011;48031;48.542;13.232;2022-11-13T02:32:06;2.67;;;2.30;;
62071;SDS011;48031;48.542;13.232;2022-11-13T02:36:27;3.25;;;2.13;;
62071;SDS011;48031;48.542;13.232;2022-11-13T02:40:49;3.25;;;2.20;;
62071;SDS011;48031;48.542;13.232;2022-11-13T02:45:09;2.78;;;2.10;;
62071;SDS011;48031;48.542;13.232;2022-11-13T02:49:29;2.22;;;2.03;;
62071;SDS011;48031;48.542;13.232;2022-11-13T02:53:50;2.92;;;1.85;;
62071;SDS011;48031;48.542;13.232;2022-11-13T02:58:10;2.78;;;1.77;;
62071;SDS011;48031;48.542;13.232;2022-11-13T03:02:31;3.58;;;2.50;;
62071;SDS011;48031;48.542;13.232;2022-11-13T03:06:51;2.47;;;2.03;;
62071;SDS011;48031;48.542;13.232;2022-11-13T03:11:11;2.65;;;2.10;;
62071;SDS011;48031;48.542;13.232;2022-11-13T03:15:32;2.55;;;1.92;;
62071;SDS011;48031;48.542;13.232;2022-11-13T03:19:53;2.47;;;2.00;;
62071;SDS011;48031;48.542;13.232;2022-11-13T03:24:13;3.05;;;2.00;;
62071;SDS011;48031;48.542;13.232;2022-11-13T03:28:35;2.25;;;1.90;;
62071;SDS011;48031;48.542;13.232;2022-11-13T03:32:56;2.15;;;1.80;;
62071;SDS011;48031;48.542;13.232;2022-11-13T03:37:16;3.13;;;2.13;;
62071;SDS011;48031;48.542;13.232;2022-11-13T03:41:36;2.95;;;2.00;;
62071;SDS011;48031;48.542;13.232;2022-11-13T03:45:57;3.28;;;2.13;;
62071;SDS011;48031;48.542;13.232;2022-11-13T03:50:17;2.28;;;2.00;;
62071;SDS011;48031;48.542;13.232;2022-11-13T03:54:37;5.00;;;2.95;;
62071;SDS011;48031;48.542;13.232;2022-11-13T03:58:57;5.78;;;3.40;;
62071;SDS011;48031;48.542;13.232;2022-11-13T04:03:18;6.00;;;3.60;;
62071;SDS011;48031;48.542;13.232;2022-11-13T04:07:38;5.20;;;2.95;;
62071;SDS011;48031;48.542;13.232;2022-11-13T04:11:59;5.03;;;3.20;;
62071;SDS011;48031;48.542;13.232;2022-11-13T04:16:19;4.68;;;3.15;;
62071;SDS011;48031;48.542;13.232;2022-11-13T04:20:39;4.47;;;2.78;;
62071;SDS011;48031;48.542;13.232;2022-11-13T04:24:59;4.13;;;2.92;;
62071;SDS011;48031;48.542;13.232;2022-11-13T04:29:20;5.22;;;3.03;;
62071;SDS011;48031;48.542;13.232;2022-11-13T04:33:40;4.88;;;3.13;;
62071;SDS011;48031;48.542;13.232;2022-11-13T04:38:00;3.45;;;2.65;;
62071;SDS011;48031;48.542;13.232;2022-11-13T04:42:20;6.40;;;3.25;;
62071;SDS011;48031;48.542;13.232;2022-11-13T04:46:59;5.72;;;3.10;;
62071;SDS011;48031;48.542;13.232;2022-11-13T04:51:19;6.82;;;4.40;;
62071;SDS011;48031;48.542;13.232;2022-11-13T04:55:39;7.28;;;4.20;;
62071;SDS011;48031;48.542;13.232;2022-11-13T05:00:00;5.15;;;3.67;;
62071;SDS011;48031;48.542;13.232;2022-11-13T05:04:21;7.95;;;4.47;;
62071;SDS011;48031;48.542;13.232;2022-11-13T05:08:41;5.10;;;3.47;;
62071;SDS011;48031;48.542;13.232;2022-11-13T05:13:02;5.72;;;3.38;;
62071;SDS011;48031;48.542;13.232;2022-11-13T05:17:22;6.07;;;3.35;;
62071;SDS011;48031;48.542;13.232;2022-11-13T05:21:42;3.35;;;2.60;;
62071;SDS011;48031;48.542;13.232;2022-11-13T05:26:07;3.03;;;2.20;;
62071;SDS011;48031;48.542;13.232;2022-11-13T05:30:32;3.65;;;2.60;;
62071;SDS011;48031;48.542;13.232;2022-11-13T05:34:52;5.20;;;3.08;;
62071;SDS011;48031;48.542;13.232;2022-11-13T05:39:12;3.65;;;2.72;;
62071;SDS011;48031;48.542;13.232;2022-11-13T05:43:33;4.97;;;2.95;;
62071;SDS011;48031;48.542;13.232;2022-11-13T05:47:54;6.50;;;3.20;;
62071;SDS011;48031;48.542;13.232;2022-11-13T05:52:14;4.13;;;2.88;;
62071;SDS011;48031;48.542;13.232;2022-11-13T05:56:35;3.75;;;2.70;;
62071;SDS011;48031;48.542;13.232;2022-11-13T06:01:05;5.63;;;3.00;;
62071;SDS011;48031;48.542;13.232;2022-11-13T06:05:26;6.20;;;3.20;;
62071;SDS011;48031;48.542;13.232;2022-11-13T06:09:46;5.60;;;3.30;;
62071;SDS011;48031;48.542;13.232;2022-11-13T06:14:07;6.43;;;3.53;;
62071;SDS011;48031;48.542;13.232;2022-11-13T06:18:27;6.53;;;3.80;;
62071;SDS011;48031;48.542;13.232;2022-11-13T06:22:48;6.55;;;2.85;;
62071;SDS011;48031;48.542;13.232;2022-11-13T06:27:09;4.57;;;3.00;;
62071;SDS011;48031;48.542;13.232;2022-11-13T06:31:30;3.22;;;2.50;;
62071;SDS011;48031;48.542;13.232;2022-11-13T06:35:52;3.83;;;2.22;;
62071;SDS011;48031;48.542;13.232;2022-11-13T06:40:12;3.80;;;2.72;;
62071;SDS011;48031;48.542;13.232;2022-11-13T06:44:33;9.15;;;4.25;;
62071;SDS011;48031;48.542;13.232;2022-11-13T06:48:53;9.18;;;5.18;;
62071;SDS011;48031;48.542;13.232;2022-11-13T06:53:14;9.38;;;5.53;;
62071;SDS011;48031;48.542;13.232;2022-11-13T06:57:35;6.20;;;3.85;;
62071;SDS011;48031;48.542;13.232;2022-11-13T07:01:55;8.57;;;4.97;;
62071;SDS011;48031;48.542;13.232;2022-11-13T07:06:20;8.43;;;5.07;;
62071;SDS011;48031;48.542;13.232;2022-11-13T07:10:41;9.52;;;5.18;;
62071;SDS011;48031;48.542;13.232;2022-11-13T07:15:02;8.52;;;5.15;;
62071;SDS011;48031;48.542;13.232;2022-11-13T07:19:22;7.10;;;4.18;;
62071;SDS011;48031;48.542;13.232;2022-11-13T07:23:43;8.18;;;5.32;;
62071;SDS011;48031;48.542;13.232;2022-11-13T07:28:03;6.75;;;4.22;;
62071;SDS011;48031;48.542;13.232;2022-11-13T07:32:24;7.60;;;3.70;;
62071;SDS011;48031;48.542;13.232;2022-11-13T07:36:44;4.20;;;3.00;;
62071;SDS011;48031;48.542;13.232;2022-11-13T07:41:04;4.18;;;2.90;;
62071;SDS011;48031;48.542;13.232;2022-11-13T07:45:25;5.57;;;3.60;;
62071;SDS011;48031;48.542;13.232;2022-11-13T07:49:46;6.97;;;4.13;;
62071;SDS011;48031;48.542;13.232;2022-11-13T07:54:07;6.03;;;4.22;;
62071;SDS011;48031;48.542;13.232;2022-11-13T07:58:27;11.98;;;7.15;;
62071;SDS011;48031;48.542;13.232;2022-11-13T08:02:48;7.82;;;4.70;;
62071;SDS011;48031;48.542;13.232;2022-11-13T08:07:09;5.07;;;3.63;;
62071;SDS011;48031;48.542;13.232;2022-11-13T08:11:31;7.88;;;5.20;;
62071;SDS011;48031;48.542;13.232;2022-11-13T08:15:51;8.73;;;4.93;;
62071;SDS011;48031;48.542;13.232;2022-11-13T08:20:11;11.55;;;6.18;;
62071;SDS011;48031;48.542;13.232;2022-11-13T08:24:31;11.10;;;5.88;;
62071;SDS011;48031;48.542;13.232;2022-11-13T08:28:51;8.25;;;5.20;;
62071;SDS011;48031;48.542;13.232;2022-11-13T08:33:11;7.13;;;4.45;;
62071;SDS011;48031;48.542;13.232;2022-11-13T08:37:32;8.35;;;5.53;;
62071;SDS011;48031;48.542;13.232;2022-11-13T08:41:52;7.63;;;4.70;;
62071;SDS011;48031;48.542;13.232;2022-11-13T08:46:13;6.28;;;4.05;;
62071;SDS011;48031;48.542;13.232;2022-11-13T08:50:33;7.88;;;4.93;;
62071;SDS011;48031;48.542;13.232;2022-11-13T08:54:53;8.43;;;5.38;;
62071;SDS011;48031;48.542;13.232;2022-11-13T08:59:14;7.30;;;4.07;;
62071;SDS011;48031;48.542;13.232;2022-11-13T09:03:35;9.60;;;6.03;;
62071;SDS011;48031;48.542;13.232;2022-11-13T09:07:56;7.00;;;4.40;;
62071;SDS011;48031;48.542;13.232;2022-11-13T09:12:19;6.25;;;3.88;;
62071;SDS011;48031;48.542;13.232;2022-11-13T09:16:40;10.27;;;6.07;;
62071;SDS011;48031;48.542;13.232;2022-11-13T09:21:00;8.90;;;5.47;;
62071;SDS011;48031;48.542;13.232;2022-11-13T09:25:21;9.63;;;6.15;;
62071;SDS011;48031;48.542;13.232;2022-11-13T09:29:41;12.85;;;7.10;;
62071;SDS011;48031;48.542;13.232;2022-11-13T09:34:03;15.73;;;9.13;;
62071;SDS011;48031;48.542;13.232;2022-11-13T09:38:24;12.65;;;7.35;;
62071;SDS011;48031;48.542;13.232;2022-11-13T09:42:45;13.68;;;8.18;;
62071;SDS011;48031;48.542;13.232;2022-11-13T09:47:24;10.55;;;7.03;;
62071;SDS011;48031;48.542;13.232;2022-11-13T09:51:52;9.88;;;6.32;;
62071;SDS011;48031;48.542;13.232;2022-11-13T10:00:37;10.88;;;7.13;;
62071;SDS011;48031;48.542;13.232;2022-11-13T10:05:03;8.82;;;6.35;;
62071;SDS011;48031;48.542;13.232;2022-11-13T10:09:37;7.55;;;5.78;;
62071;SDS011;48031;48.542;13.232;2022-11-13T10:14:16;7.55;;;4.80;;
62071;SDS011;48031;48.542;13.232;2022-11-13T10:18:40;7.93;;;5.70;;
62071;SDS011;48031;48.542;13.232;2022-11-13T10:23:20;5.50;;;4.43;;
62071;SDS011;48031;48.542;13.232;2022-11-13T10:27:55;6.38;;;4.80;;
62071;SDS011;48031;48.542;13.232;2022-11-13T10:32:40;8.27;;;6.00;;
62071;SDS011;48031;48.542;13.232;2022-11-13T10:41:27;9.45;;;6.20;;
62071;SDS011;48031;48.542;13.232;2022-11-13T10:45:57;7.10;;;4.82;;
62071;SDS011;48031;48.542;13.232;2022-11-13T10:50:21;7.82;;;5.85;;
62071;SDS011;48031;48.542;13.232;2022-11-13T10:54:43;8.40;;;6.13;;
62071;SDS011;48031;48.542;13.232;2022-11-13T11:03:35;8.18;;;5.63;;
62071;SDS011;48031;48.542;13.232;2022-11-13T11:07:55;6.05;;;5.22;;
62071;SDS011;48031;48.542;13.232;2022-11-13T11:12:18;6.15;;;4.72;;
62071;SDS011;48031;48.542;13.232;2022-11-13T11:16:50;6.47;;;4.85;;
62071;SDS011;48031;48.542;13.232;2022-11-13T11:21:14;8.32;;;5.60;;
62071;SDS011;48031;48.542;13.232;2022-11-13T11:25:39;7.53;;;5.80;;
62071;SDS011;48031;48.542;13.232;2022-11-13T11:30:20;8.00;;;5.30;;
62071;SDS011;48031;48.542;13.232;2022-11-13T11:34:46;5.57;;;4.68;;
62071;SDS011;48031;48.542;13.232;2022-11-13T11:44:22;5.18;;;4.35;;
62071;SDS011;48031;48.542;13.232;2022-11-13T11:48:49;5.53;;;4.28;;
62071;SDS011;48031;48.542;13.232;2022-11-13T11:53:17;4.47;;;4.07;;
62071;SDS011;48031;48.542;13.232;2022-11-13T12:11:44;3.45;;;3.00;;
62071;SDS011;48031;48.542;13.232;2022-11-13T12:16:19;3.40;;;3.10;;
62071;SDS011;48031;48.542;13.232;2022-11-13T12:34:43;3.15;;;2.70;;
62071;SDS011;48031;48.542;13.232;2022-11-13T12:43:58;3.17;;;2.38;;
62071;SDS011;48031;48.542;13.232;2022-11-13T12:48:21;3.17;;;2.70;;
62071;SDS011;48031;48.542;13.232;2022-11-13T12:52:59;2.50;;;2.30;;
62071;SDS011;48031;48.542;13.232;2022-11-13T12:57:23;2.88;;;2.60;;
62071;SDS011;48031;48.542;13.232;2022-11-13T13:01:51;2.30;;;2.10;;
62071;SDS011;48031;48.542;13.232;2022-11-13T13:06:21;2.50;;;2.30;;
62071;SDS011;48031;48.542;13.232;2022-11-13T13:11:13;2.80;;;2.60;;
62071;SDS011;48031;48.542;13.232;2022-11-13T13:15:58;4.20;;;2.40;;
62071;SDS011;48031;48.542;13.232;2022-11-13T13:20:31;2.35;;;2.00;;
62071;SDS011;48031;48.542;13.232;2022-11-13T13:24:59;2.10;;;2.00;;
62071;SDS011;48031;48.542;13.232;2022-11-13T13:29:46;2.95;;;2.22;;
62071;SDS011;48031;48.542;13.232;2022-11-13T13:47:58;2.45;;;2.25;;
62071;SDS011;48031;48.542;13.232;2022-11-13T13:52:23;3.20;;;3.00;;
62071;SDS011;48031;48.542;13.232;2022-11-13T13:56:48;3.00;;;2.80;;
62071;SDS011;48031;48.542;13.232;2022-11-13T14:01:13;2.85;;;2.65;;
62071;SDS011;48031;48.542;13.232;2022-11-13T14:05:44;3.20;;;3.00;;
62071;SDS011;48031;48.542;13.232;2022-11-13T14:10:14;2.38;;;2.28;;
62071;SDS011;48031;48.542;13.232;2022-11-13T14:14:37;2.50;;;2.30;;
62071;SDS011;48031;48.542;13.232;2022-11-13T14:19:04;3.03;;;2.35;;
62071;SDS011;48031;48.542;13.232;2022-11-13T14:23:35;2.42;;;2.30;;
62071;SDS011;48031;48.542;13.232;2022-11-13T14:28:00;2.38;;;1.90;;
62071;SDS011;48031;48.542;13.232;2022-11-13T14:36:49;2.35;;;2.20;;
62071;SDS011;48031;48.542;13.232;2022-11-13T14:41:30;1.70;;;1.60;;
62071;SDS011;48031;48.542;13.232;2022-11-13T14:45:58;2.65;;;2.00;;
62071;SDS011;48031;48.542;13.232;2022-11-13T14:54:40;3.13;;;2.20;;
62071;SDS011;48031;48.542;13.232;2022-11-13T14:59:24;3.47;;;2.90;;
62071;SDS011;48031;48.542;13.232;2022-11-13T15:03:47;3.10;;;2.80;;
62071;SDS011;48031;48.542;13.232;2022-11-13T15:08:12;3.28;;;2.67;;
62071;SDS011;48031;48.542;13.232;2022-11-13T15:12:32;1.88;;;1.77;;
62071;SDS011;48031;48.542;13.232;2022-11-13T15:16:52;1.73;;;1.40;;
62071;SDS011;48031;48.542;13.232;2022-11-13T15:21:13;1.67;;;1.58;;
62071;SDS011;48031;48.542;13.232;2022-11-13T15:25:33;1.98;;;1.35;;
62071;SDS011;48031;48.542;13.232;2022-11-13T15:29:53;2.63;;;1.77;;
62071;SDS011;48031;48.542;13.232;2022-11-13T15:34:14;1.67;;;1.50;;
62071;SDS011;48031;48.542;13.232;2022-11-13T15:38:35;1.67;;;1.20;;
62071;SDS011;48031;48.542;13.232;2022-11-13T15:42:55;2.15;;;1.30;;
62071;SDS011;48031;48.542;13.232;2022-11-13T15:47:30;1.48;;;1.30;;
62071;SDS011;48031;48.542;13.232;2022-11-13T15:51:53;2.10;;;1.10;;
62071;SDS011;48031;48.542;13.232;2022-11-13T15:56:13;1.10;;;1.00;;
62071;SDS011;48031;48.542;13.232;2022-11-13T16:00:34;1.92;;;1.40;;
62071;SDS011;48031;48.542;13.232;2022-11-13T16:04:55;1.55;;;1.30;;
62071;SDS011;48031;48.542;13.232;2022-11-13T16:09:16;1.50;;;1.40;;
62071;SDS011;48031;48.542;13.232;2022-11-13T16:13:36;2.63;;;1.60;;
62071;SDS011;48031;48.542;13.232;2022-11-13T16:17:56;2.60;;;1.90;;
62071;SDS011;48031;48.542;13.232;2022-11-13T16:22:19;2.78;;;2.10;;
62071;SDS011;48031;48.542;13.232;2022-11-13T16:26:43;4.57;;;2.30;;
62071;SDS011;48031;48.542;13.232;2022-11-13T16:31:07;2.15;;;1.75;;
62071;SDS011;48031;48.542;13.232;2022-11-13T16:35:27;2.08;;;1.50;;
62071;SDS011;48031;48.542;13.232;2022-11-13T16:39:47;1.83;;;1.60;;
62071;SDS011;48031;48.542;13.232;2022-11-13T16:44:08;1.38;;;1.27;;
62071;SDS011;48031;48.542;13.232;2022-11-13T16:48:29;1.85;;;1.45;;
62071;SDS011;48031;48.542;13.232;2022-11-13T16:52:49;1.88;;;1.40;;
62071;SDS011;48031;48.542;13.232;2022-11-13T16:57:12;1.85;;;1.55;;
62071;SDS011;48031;48.542;13.232;2022-11-13T17:01:33;2.17;;;1.80;;
62071;SDS011;48031;48.542;13.232;2022-11-13T17:05:53;2.85;;;1.90;;
62071;SDS011;48031;48.542;13.232;2022-11-13T17:10:14;2.55;;;1.95;;
62071;SDS011;48031;48.542;13.232;2022-11-13T17:14:51;2.70;;;2.00;;
62071;SDS011;48031;48.542;13.232;2022-11-13T17:19:11;2.55;;;1.80;;
62071;SDS011;48031;48.542;13.232;2022-11-13T17:23:32;3.03;;;2.30;;
62071;SDS011;48031;48.542;13.232;2022-11-13T17:27:54;3.47;;;2.25;;
62071;SDS011;48031;48.542;13.232;2022-11-13T17:32:14;2.92;;;2.08;;
62071;SDS011;48031;48.542;13.232;2022-11-13T17:36:34;3.83;;;2.53;;
62071;SDS011;48031;48.542;13.232;2022-11-13T17:40:54;3.00;;;2.17;;
62071;SDS011;48031;48.542;13.232;2022-11-13T17:45:14;2.63;;;2.00;;
62071;SDS011;48031;48.542;13.232;2022-11-13T17:49:35;2.72;;;2.13;;
62071;SDS011;48031;48.542;13.232;2022-11-13T17:53:56;3.20;;;2.38;;
62071;SDS011;48031;48.542;13.232;2022-11-13T17:58:16;2.38;;;2.08;;
62071;SDS011;48031;48.542;13.232;2022-11-13T18:02:36;3.33;;;2.63;;
62071;SDS011;48031;48.542;13.232;2022-11-13T18:06:56;4.72;;;2.83;;
62071;SDS011;48031;48.542;13.232;2022-11-13T18:11:21;4.82;;;3.38;;
62071;SDS011;48031;48.542;13.232;2022-11-13T18:15:43;3.83;;;2.40;;
62071;SDS011;48031;48.542;13.232;2022-11-13T18:20:04;5.18;;;3.13;;
62071;SDS011;48031;48.542;13.232;2022-11-13T18:24:24;3.53;;;2.30;;
62071;SDS011;48031;48.542;13.232;2022-11-13T18:28:44;3.83;;;2.60;;
62071;SDS011;48031;48.542;13.232;2022-11-13T18:33:05;2.92;;;2.22;;
62071;SDS011;48031;48.542;13.232;2022-11-13T18:37:25;2.78;;;2.15;;
62071;SDS011;48031;48.542;13.232;2022-11-13T18:41:46;3.35;;;2.80;;
62071;SDS011;48031;48.542;13.232;2022-11-13T18:46:06;3.55;;;2.40;;
62071;SDS011;48031;48.542;13.232;2022-11-13T18:50:28;7.65;;;2.35;;
62071;SDS011;48031;48.542;13.232;2022-11-13T18:54:48;5.03;;;3.65;;
62071;SDS011;48031;48.542;13.232;2022-11-13T18:59:09;4.10;;;2.70;;
62071;SDS011;48031;48.542;13.232;2022-11-13T19:03:30;4.03;;;3.00;;
62071;SDS011;48031;48.542;13.232;2022-11-13T19:07:50;4.85;;;3.10;;
62071;SDS011;48031;48.542;13.232;2022-11-13T19:12:11;4.00;;;2.90;;
62071;SDS011;48031;48.542;13.232;2022-11-13T19:16:32;3.25;;;2.50;;
62071;SDS011;48031;48.542;13.232;2022-11-13T19:20:56;2.75;;;2.13;;
62071;SDS011;48031;48.542;13.232;2022-11-13T19:25:17;2.65;;;2.20;;
62071;SDS011;48031;48.542;13.232;2022-11-13T19:29:37;4.20;;;2.58;;
62071;SDS011;48031;48.542;13.232;2022-11-13T19:33:59;5.32;;;3.30;;
62071;SDS011;48031;48.542;13.232;2022-11-13T19:38:21;3.35;;;2.58;;
62071;SDS011;48031;48.542;13.232;2022-11-13T19:42:41;3.63;;;2.47;;
62071;SDS011;48031;48.542;13.232;2022-11-13T19:47:02;3.20;;;2.40;;
62071;SDS011;48031;48.542;13.232;2022-11-13T19:51:22;3.50;;;2.83;;
62071;SDS011;48031;48.542;13.232;2022-11-13T19:55:52;3.35;;;2.30;;
62071;SDS011;48031;48.542;13.232;2022-11-13T20:00:14;3.15;;;2.58;;
62071;SDS011;48031;48.542;13.232;2022-11-13T20:04:36;2.70;;;2.28;;
62071;SDS011;48031;48.542;13.232;2022-11-13T20:08:59;2.78;;;2.08;;
62071;SDS011;48031;48.542;13.232;2022-11-13T20:13:20;3.22;;;2.35;;
62071;SDS011;48031;48.542;13.232;2022-11-13T20:17:43;5.40;;;3.17;;
62071;SDS011;48031;48.542;13.232;2022-11-13T20:22:03;6.15;;;3.22;;
62071;SDS011;48031;48.542;13.232;2022-11-13T20:26:24;5.00;;;3.20;;
62071;SDS011;48031;48.542;13.232;2022-11-13T20:30:44;4.63;;;3.33;;
62071;SDS011;48031;48.542;13.232;2022-11-13T20:35:05;5.82;;;3.97;;
62071;SDS011;48031;48.542;13.232;2022-11-13T20:39:26;6.55;;;4.28;;
62071;SDS011;48031;48.542;13.232;2022-11-13T20:43:47;7.25;;;4.63;;
62071;SDS011;48031;48.542;13.232;2022-11-13T20:48:07;6.97;;;4.63;;
62071;SDS011;48031;48.542;13.232;2022-11-13T20:52:27;6.68;;;4.30;;
62071;SDS011;48031;48.542;13.232;2022-11-13T20:56:47;9.93;;;5.20;;
62071;SDS011;48031;48.542;13.232;2022-11-13T21:01:12;5.93;;;3.95;;
62071;SDS011;48031;48.542;13.232;2022-11-13T21:05:34;3.63;;;2.92;;
62071;SDS011;48031;48.542;13.232;2022-11-13T21:09:54;4.97;;;3.20;;
62071;SDS011;48031;48.542;13.232;2022-11-13T21:14:14;6.68;;;3.45;;
62071;SDS011;48031;48.542;13.232;2022-11-13T21:18:34;4.93;;;3.75;;
62071;SDS011;48031;48.542;13.232;2022-11-13T21:22:55;5.32;;;3.67;;
62071;SDS011;48031;48.542;13.232;2022-11-13T21:27:15;5.78;;;4.03;;
62071;SDS011;48031;48.542;13.232;2022-11-13T21:31:36;5.05;;;3.17;;
62071;SDS011;48031;48.542;13.232;2022-11-13T21:36:01;5.70;;;3.30;;
62071;SDS011;48031;48.542;13.232;2022-11-13T21:40:23;6.03;;;3.78;;
62071;SDS011;48031;48.542;13.232;2022-11-13T21:44:44;6.65;;;4.43;;
62071;SDS011;48031;48.542;13.232;2022-11-13T21:49:05;7.20;;;4.50;;
62071;SDS011;48031;48.542;13.232;2022-11-13T21:53:27;5.13;;;3.47;;
62071;SDS011;48031;48.542;13.232;2022-11-13T21:57:47;5.40;;;3.20;;
62071;SDS011;48031;48.542;13.232;2022-11-13T22:02:08;6.32;;;3.90;;
62071;SDS011;48031;48.542;13.232;2022-11-13T22:06:30;5.32;;;3.60;;
62071;SDS011;48031;48.542;13.232;2022-11-13T22:10:58;7.35;;;4.00;;
62071;SDS011;48031;48.542;13.232;2022-11-13T22:15:18;5.75;;;3.83;;
62071;SDS011;48031;48.542;13.232;2022-11-13T22:19:39;6.03;;;4.10;;
62071;SDS011;48031;48.542;13.232;2022-11-13T22:23:59;7.57;;;4.20;;
62071;SDS011;48031;48.542;13.232;2022-11-13T22:28:19;5.88;;;3.60;;
62071;SDS011;48031;48.542;13.232;2022-11-13T22:32:39;7.68;;;4.68;;
62071;SDS011;48031;48.542;13.232;2022-11-13T22:37:00;7.40;;;4.47;;
62071;SDS011;48031;48.542;13.232;2022-11-13T22:45:43;6.90;;;4.13;;
62071;SDS011;48031;48.542;13.232;2022-11-13T22:50:03;5.50;;;3.67;;
62071;SDS011;48031;48.542;13.232;2022-11-13T22:54:24;6.97;;;3.95;;
62071;SDS011;48031;48.542;13.232;2022-11-13T22:58:44;6.47;;;4.22;;
62071;SDS011;48031;48.542;13.232;2022-11-13T23:03:04;5.32;;;3.85;;
62071;SDS011;48031;48.542;13.232;2022-11-13T23:07:25;5.38;;;3.75;;
62071;SDS011;48031;48.542;13.232;2022-11-13T23:11:45;4.60;;;3.20;;
62071;SDS011;48031;48.542;13.232;2022-11-13T23:16:06;4.63;;;3.63;;
62071;SDS011;48031;48.542;13.232;2022-11-13T23:20:26;6.07;;;3.50;;
62071;SDS011;48031;48.542;13.232;2022-11-13T23:24:46;8.38;;;5.03;;
62071;SDS011;48031;48.542;13.232;2022-11-13T23:29:06;5.70;;;3.90;;
62071;SDS011;48031;48.542;13.232;2022-11-13T23:33:27;6.07;;;3.50;;
62071;SDS011;48031;48.542;13.232;2022-11-13T23:37:48;5.72;;;3.90;;
62071;SDS011;48031;48.542;13.232;2022-11-13T23:42:08;5.93;;;3.88;;
62071;SDS011;48031;48.542;13.232;2022-11-13T23:46:28;5.78;;;3.33;;
62071;SDS011;48031;48.542;13.232;2022-11-13T23:50:49;5.90;;;3.60;;
62071;SDS011;48031;48.542;13.232;2022-11-13T23:55:10;6.80;;;4.18;;
62071;SDS011;48031;48.542;13.232;2022-11-13T23:59:30;4.68;;;3.30;;
